Time,TemperatureF,DewpointF,PressureIn,WindDirection,WindDirectionDegrees,WindSpeedMPH,WindSpeedGustMPH,Humidity,HourlyPrecipIn,Conditions,Clouds,dailyrainin,SoftwareType,DateUTC
2013-03-04 00:03:00,35.6,34.6,29.90,NE,45,0.7,2.2,96,0.00,,,0.00,pywws,2013-03-04 00:03:00,
2013-03-04 00:09:00,35.8,34.8,29.89,NE,45,0.0,1.6,96,0.00,,,0.00,pywws,2013-03-04 00:09:00,
2013-03-04 00:14:00,35.8,34.5,29.89,NE,45,0.0,2.2,95,0.00,,,0.00,pywws,2013-03-04 00:14:00,
2013-03-04 00:18:00,35.8,34.5,29.89,NE,45,0.0,0.7,95,0.00,,,0.00,pywws,2013-03-04 00:18:00,
2013-03-04 00:24:00,35.6,34.3,29.89,NE,45,0.0,0.7,95,0.00,,,0.00,pywws,2013-03-04 00:24:00,
2013-03-04 00:29:00,35.6,34.3,29.89,NE,45,0.0,0.0,95,0.00,,,0.00,pywws,2013-03-04 00:29:00,
2013-03-04 00:34:00,35.6,34.3,29.89,East,90,0.0,0.0,95,0.00,,,0.00,pywws,2013-03-04 00:34:00,
2013-03-04 00:39:00,35.6,34.0,29.89,NE,45,0.0,0.0,94,0.00,,,0.00,pywws,2013-03-04 00:39:00,
2013-03-04 00:44:00,35.4,33.9,29.89,NE,45,0.0,0.0,94,0.00,,,0.00,pywws,2013-03-04 00:44:00,
2013-03-04 00:49:00,35.6,34.0,29.89,East,90,0.0,0.0,94,0.00,,,0.00,pywws,2013-03-04 00:49:00,
2013-03-04 00:54:00,35.8,34.2,29.89,NE,45,0.0,0.7,94,0.00,,,0.00,pywws,2013-03-04 00:54:00,
2013-03-04 01:00:00,35.8,34.2,29.88,NE,45,0.0,0.7,94,0.00,,,0.00,pywws,2013-03-04 01:00:00,
2013-03-04 01:05:00,35.8,34.2,29.88,NE,45,0.0,0.7,94,0.00,,,0.00,pywws,2013-03-04 01:05:00,
2013-03-04 01:10:00,35.8,34.2,29.88,NE,45,0.0,0.7,94,0.00,,,0.00,pywws,2013-03-04 01:10:00,
2013-03-04 01:15:00,35.8,34.2,29.88,NE,45,0.0,1.6,94,0.00,,,0.00,pywws,2013-03-04 01:15:00,
2013-03-04 01:21:00,35.8,34.2,29.88,NE,45,0.0,0.7,94,0.00,,,0.00,pywws,2013-03-04 01:21:00,
2013-03-04 01:26:00,35.8,34.0,29.88,North,0,0.0,1.6,93,0.00,,,0.00,pywws,2013-03-04 01:26:00,
2013-03-04 01:31:00,35.6,33.8,29.88,NE,45,0.0,0.7,93,0.00,,,0.00,pywws,2013-03-04 01:31:00,
2013-03-04 01:36:00,35.4,33.6,29.88,NE,45,0.0,0.0,93,0.00,,,0.00,pywws,2013-03-04 01:36:00,
2013-03-04 01:41:00,35.4,33.6,29.87,NE,45,0.0,0.7,93,0.00,,,0.00,pywws,2013-03-04 01:41:00,
2013-03-04 01:46:00,35.4,33.6,29.87,NE,45,0.0,0.7,93,0.00,,,0.00,pywws,2013-03-04 01:46:00,
2013-03-04 01:52:00,35.1,33.2,29.87,North,0,0.0,0.0,93,0.00,,,0.00,pywws,2013-03-04 01:52:00,
2013-03-04 01:57:00,34.9,32.8,29.87,SW,225,0.0,0.0,92,0.00,,,0.00,pywws,2013-03-04 01:57:00,
2013-03-04 02:02:00,34.7,32.6,29.87,SW,225,0.0,0.0,92,0.00,,,0.00,pywws,2013-03-04 02:02:00,
2013-03-04 02:08:00,34.0,31.9,29.87,SW,225,0.0,0.0,92,0.00,,,0.00,pywws,2013-03-04 02:08:00,
2013-03-04 02:13:00,33.4,31.4,29.86,NE,45,0.0,0.0,92,0.00,,,0.00,pywws,2013-03-04 02:13:00,
2013-03-04 02:18:00,33.4,31.6,29.86,East,90,0.0,1.6,93,0.00,,,0.00,pywws,2013-03-04 02:18:00,
2013-03-04 02:24:00,33.4,31.6,29.86,NE,45,0.0,0.7,93,0.00,,,0.00,pywws,2013-03-04 02:24:00,
2013-03-04 02:29:00,33.4,31.9,29.85,NE,45,0.0,0.0,94,0.00,,,0.00,pywws,2013-03-04 02:29:00,
2013-03-04 02:34:00,33.3,31.7,29.85,North,0,0.0,0.0,94,0.00,,,0.00,pywws,2013-03-04 02:34:00,
2013-03-04 02:39:00,33.1,31.5,29.85,North,0,0.0,0.0,94,0.00,,,0.00,pywws,2013-03-04 02:39:00,
2013-03-04 02:44:00,33.1,31.5,29.85,NE,45,0.0,0.0,94,0.00,,,0.00,pywws,2013-03-04 02:44:00,
2013-03-04 02:49:00,32.9,31.4,29.85,NE,45,0.0,0.0,94,0.00,,,0.00,pywws,2013-03-04 02:49:00,
2013-03-04 02:54:00,32.7,31.2,29.85,NE,45,0.0,0.0,94,0.00,,,0.00,pywws,2013-03-04 02:54:00,
2013-03-04 03:00:00,32.7,31.2,29.85,NE,45,0.0,0.0,94,0.00,,,0.00,pywws,2013-03-04 03:00:00,
2013-03-04 03:05:00,32.7,31.2,29.85,NE,45,0.0,0.0,94,0.00,,,0.00,pywws,2013-03-04 03:05:00,
2013-03-04 03:10:00,32.7,31.2,29.85,NE,45,0.0,0.0,94,0.00,,,0.00,pywws,2013-03-04 03:10:00,
2013-03-04 03:15:00,31.6,30.1,29.85,NE,45,0.0,0.0,94,0.00,,,0.00,pywws,2013-03-04 03:15:00,
2013-03-04 03:20:00,31.6,30.1,29.85,NE,45,0.0,0.0,94,0.00,,,0.00,pywws,2013-03-04 03:20:00,
2013-03-04 03:25:00,30.7,29.2,29.84,NE,45,0.0,0.0,94,0.00,,,0.00,pywws,2013-03-04 03:25:00,
2013-03-04 03:30:00,30.9,29.7,29.84,NE,45,0.0,0.0,95,0.00,,,0.00,pywws,2013-03-04 03:30:00,
2013-03-04 03:35:00,31.1,29.8,29.84,NE,45,0.0,0.0,95,0.00,,,0.00,pywws,2013-03-04 03:35:00,
2013-03-04 03:40:00,31.1,29.8,29.84,NE,45,0.0,0.0,95,0.00,,,0.00,pywws,2013-03-04 03:40:00,
2013-03-04 03:45:00,31.1,29.8,29.84,West,270,0.0,0.0,95,0.00,,,0.00,pywws,2013-03-04 03:45:00,
2013-03-04 03:50:00,31.5,30.2,29.83,West,270,0.0,0.0,95,0.00,,,0.00,pywws,2013-03-04 03:50:00,
2013-03-04 03:55:00,31.3,30.0,29.83,East,90,0.0,0.0,95,0.00,,,0.00,pywws,2013-03-04 03:55:00,
2013-03-04 04:00:00,31.5,30.2,29.84,NE,45,0.0,0.0,95,0.00,,,0.00,pywws,2013-03-04 04:00:00,
2013-03-04 04:05:00,31.5,30.2,29.83,NE,45,0.0,0.0,95,0.00,,,0.00,pywws,2013-03-04 04:05:00,
2013-03-04 04:11:00,30.9,29.7,29.83,NE,45,0.0,0.0,95,0.00,,,0.00,pywws,2013-03-04 04:11:00,
2013-03-04 04:16:00,30.9,29.9,29.83,NE,45,0.0,0.0,96,0.00,,,0.00,pywws,2013-03-04 04:16:00,
2013-03-04 04:21:00,31.1,30.1,29.83,NE,45,0.0,0.7,96,0.00,,,0.00,pywws,2013-03-04 04:21:00,
2013-03-04 04:26:00,31.5,30.5,29.83,NE,45,0.0,0.7,96,0.00,,,0.00,pywws,2013-03-04 04:26:00,
2013-03-04 04:32:00,31.5,30.5,29.83,NE,45,0.0,0.7,96,0.00,,,0.00,pywws,2013-03-04 04:32:00,
2013-03-04 04:37:00,31.6,30.9,29.82,NE,45,0.0,0.7,97,0.00,,,0.00,pywws,2013-03-04 04:37:00,
2013-03-04 04:42:00,31.6,30.9,29.82,NE,45,0.0,0.0,97,0.00,,,0.00,pywws,2013-03-04 04:42:00,
2013-03-04 04:48:00,31.6,30.9,29.82,NE,45,0.0,0.7,97,0.00,,,0.00,pywws,2013-03-04 04:48:00,
2013-03-04 04:53:00,31.6,30.9,29.82,North,0,0.0,0.7,97,0.00,,,0.00,pywws,2013-03-04 04:53:00,
2013-03-04 04:58:00,31.8,31.1,29.82,NE,45,0.0,0.7,97,0.00,,,0.00,pywws,2013-03-04 04:58:00,
2013-03-04 05:00:00,31.8,31.1,29.82,East,90,0.0,0.0,97,0.00,,,0.00,pywws,2013-03-04 05:00:00,
2013-03-04 05:01:00,31.8,31.1,29.82,East,90,0.0,0.0,97,0.00,,,0.00,pywws,2013-03-04 05:01:00,
2013-03-04 05:02:00,31.8,31.1,29.82,East,90,0.0,0.0,97,0.00,,,0.00,pywws,2013-03-04 05:02:00,
2013-03-04 05:07:00,31.8,31.1,29.82,North,0,0.0,0.7,97,0.00,,,0.00,pywws,2013-03-04 05:07:00,
2013-03-04 05:12:00,31.8,31.1,29.81,East,90,0.0,1.6,97,0.00,,,0.00,pywws,2013-03-04 05:12:00,
2013-03-04 05:18:00,32.0,31.5,29.81,North,0,0.0,1.6,98,0.00,,,0.00,pywws,2013-03-04 05:18:00,
2013-03-04 05:22:00,32.0,31.5,29.81,East,90,0.7,2.2,98,0.00,,,0.00,pywws,2013-03-04 05:22:00,
2013-03-04 05:28:00,32.2,31.7,29.81,East,90,0.0,0.0,98,0.00,,,0.00,pywws,2013-03-04 05:28:00,
2013-03-04 05:33:00,32.2,31.7,29.82,East,90,0.0,0.7,98,0.00,,,0.00,pywws,2013-03-04 05:33:00,
2013-03-04 05:38:00,32.2,31.7,29.81,NE,45,0.0,1.6,98,0.00,,,0.00,pywws,2013-03-04 05:38:00,
2013-03-04 05:43:00,32.2,31.7,29.81,NE,45,0.0,0.7,98,0.00,,,0.00,pywws,2013-03-04 05:43:00,
2013-03-04 05:49:00,32.2,31.7,29.81,East,90,0.0,0.0,98,0.00,,,0.00,pywws,2013-03-04 05:49:00,
2013-03-04 05:54:00,32.0,31.5,29.80,NE,45,0.0,0.7,98,0.00,,,0.00,pywws,2013-03-04 05:54:00,
2013-03-04 05:59:00,32.0,31.5,29.80,East,90,0.0,1.6,98,0.00,,,0.00,pywws,2013-03-04 05:59:00,
2013-03-04 06:05:00,32.0,31.5,29.80,East,90,0.0,1.6,98,0.00,,,0.00,pywws,2013-03-04 06:05:00,
2013-03-04 06:10:00,32.0,31.5,29.80,NE,45,0.0,1.6,98,0.00,,,0.00,pywws,2013-03-04 06:10:00,
2013-03-04 06:15:00,31.8,31.3,29.80,NE,45,0.0,0.7,98,0.00,,,0.00,pywws,2013-03-04 06:15:00,
2013-03-04 06:20:00,31.8,31.3,29.80,NE,45,0.0,1.6,98,0.00,,,0.00,pywws,2013-03-04 06:20:00,
2013-03-04 06:25:00,31.8,31.3,29.80,NE,45,0.7,2.2,98,0.00,,,0.00,pywws,2013-03-04 06:25:00,
2013-03-04 06:30:00,31.8,31.3,29.80,East,90,0.0,1.6,98,0.00,,,0.00,pywws,2013-03-04 06:30:00,
2013-03-04 06:35:00,32.0,31.5,29.80,NNE,22,0.7,1.6,98,0.00,,,0.00,pywws,2013-03-04 06:35:00,
2013-03-04 06:40:00,32.2,31.7,29.80,East,90,0.7,2.2,98,0.00,,,0.00,pywws,2013-03-04 06:40:00,
2013-03-04 06:45:00,32.0,31.5,29.80,North,0,0.0,1.6,98,0.00,,,0.00,pywws,2013-03-04 06:45:00,
2013-03-04 06:51:00,32.2,31.7,29.80,East,90,0.0,1.6,98,0.00,,,0.00,pywws,2013-03-04 06:51:00,
2013-03-04 06:56:00,32.4,31.9,29.80,North,0,1.6,3.1,98,0.00,,,0.00,pywws,2013-03-04 06:56:00,
2013-03-04 07:01:00,32.4,31.9,29.79,NE,45,0.7,2.2,98,0.00,,,0.00,pywws,2013-03-04 07:01:00,
2013-03-04 07:06:00,32.4,31.9,29.79,NE,45,0.7,2.2,98,0.00,,,0.00,pywws,2013-03-04 07:06:00,
2013-03-04 07:11:00,32.7,32.2,29.79,ENE,68,0.7,3.1,98,0.00,,,0.00,pywws,2013-03-04 07:11:00,
2013-03-04 07:17:00,32.9,32.4,29.80,East,90,1.6,3.1,98,0.00,,,0.00,pywws,2013-03-04 07:17:00,
2013-03-04 07:22:00,33.1,32.6,29.80,East,90,0.7,2.2,98,0.00,,,0.00,pywws,2013-03-04 07:22:00,
2013-03-04 07:27:00,33.4,32.9,29.80,East,90,0.7,2.2,98,0.00,,,0.00,pywws,2013-03-04 07:27:00,
2013-03-04 07:32:00,33.8,33.3,29.79,East,90,0.0,3.8,98,0.00,,,0.00,pywws,2013-03-04 07:32:00,
2013-03-04 07:37:00,34.2,33.4,29.80,SSE,158,0.7,3.1,97,0.00,,,0.00,pywws,2013-03-04 07:37:00,
2013-03-04 07:42:00,34.5,33.5,29.80,East,90,0.7,1.6,96,0.00,,,0.00,pywws,2013-03-04 07:42:00,
2013-03-04 07:47:00,34.3,33.6,29.79,NE,45,0.7,3.1,97,0.00,,,0.00,pywws,2013-03-04 07:47:00,
2013-03-04 07:53:00,34.5,33.0,29.80,North,0,0.7,3.1,94,0.00,,,0.00,pywws,2013-03-04 07:53:00,
2013-03-04 07:58:00,34.7,33.2,29.79,East,90,0.7,3.1,94,0.00,,,0.00,pywws,2013-03-04 07:58:00,
2013-03-04 08:03:00,34.7,33.2,29.80,NE,45,1.6,3.1,94,0.00,,,0.00,pywws,2013-03-04 08:03:00,
2013-03-04 08:08:00,35.2,33.4,29.80,ENE,68,1.6,5.4,93,0.00,,,0.00,pywws,2013-03-04 08:08:00,
2013-03-04 08:13:00,35.6,33.5,29.79,East,90,1.6,4.5,92,0.00,,,0.00,pywws,2013-03-04 08:13:00,
2013-03-04 08:18:00,36.0,33.6,29.79,North,0,1.6,3.1,91,0.00,,,0.00,pywws,2013-03-04 08:18:00,
2013-03-04 08:24:00,36.1,33.5,29.79,NE,45,4.5,9.2,90,0.00,,,0.00,pywws,2013-03-04 08:24:00,
2013-03-04 08:29:00,37.0,33.8,29.79,NE,45,1.6,3.8,88,0.00,,,0.00,pywws,2013-03-04 08:29:00,
2013-03-04 08:34:00,37.6,34.1,29.79,NE,45,3.1,6.0,87,0.00,,,0.00,pywws,2013-03-04 08:34:00,
2013-03-04 08:39:00,37.4,33.9,29.79,NE,45,3.1,4.5,87,0.00,,,0.00,pywws,2013-03-04 08:39:00,
2013-03-04 08:45:00,37.4,34.2,29.78,SW,225,2.2,6.9,88,0.00,,,0.00,pywws,2013-03-04 08:45:00,
2013-03-04 08:50:00,37.6,34.1,29.78,East,90,5.4,9.2,87,0.00,,,0.00,pywws,2013-03-04 08:50:00,
2013-03-04 08:55:00,37.9,34.4,29.78,NE,45,3.1,6.0,87,0.00,,,0.00,pywws,2013-03-04 08:55:00,
2013-03-04 09:00:00,38.3,34.8,29.77,NE,45,3.1,5.4,87,0.00,,,0.00,pywws,2013-03-04 09:00:00,
2013-03-04 09:05:00,38.3,34.8,29.77,NE,45,3.1,5.4,87,0.00,,,0.00,pywws,2013-03-04 09:05:00,
2013-03-04 09:10:00,38.7,34.5,29.77,NE,45,2.2,5.4,85,0.00,,,0.00,pywws,2013-03-04 09:10:00,
2013-03-04 09:16:00,38.8,34.4,29.77,ENE,68,3.1,6.0,84,0.00,,,0.00,pywws,2013-03-04 09:16:00,
2013-03-04 09:21:00,39.2,34.8,29.77,North,0,1.6,3.8,84,0.00,,,0.00,pywws,2013-03-04 09:21:00,
2013-03-04 09:26:00,39.7,35.0,29.77,SSE,158,0.7,3.1,83,0.00,,,0.00,pywws,2013-03-04 09:26:00,
2013-03-04 09:32:00,40.1,35.1,29.77,East,90,3.8,7.6,82,0.00,,,0.00,pywws,2013-03-04 09:32:00,
2013-03-04 09:37:00,40.5,35.4,29.76,SE,135,0.7,3.8,82,0.00,,,0.00,pywws,2013-03-04 09:37:00,
2013-03-04 09:42:00,40.8,35.1,29.76,SE,135,1.6,5.4,80,0.00,,,0.00,pywws,2013-03-04 09:42:00,
2013-03-04 09:48:00,41.0,35.0,29.76,NE,45,2.2,4.5,79,0.00,,,0.00,pywws,2013-03-04 09:48:00,
2013-03-04 09:53:00,41.2,34.5,29.76,East,90,3.1,6.0,77,0.00,,,0.00,pywws,2013-03-04 09:53:00,
2013-03-04 09:58:00,41.2,34.9,29.76,SE,135,1.6,3.8,78,0.00,,,0.00,pywws,2013-03-04 09:58:00,
2013-03-04 10:03:00,41.4,34.7,29.75,NNE,22,3.1,5.4,77,0.00,,,0.00,pywws,2013-03-04 10:03:00,
2013-03-04 10:08:00,41.7,35.1,29.75,NE,45,1.6,3.8,77,0.00,,,0.00,pywws,2013-03-04 10:08:00,
2013-03-04 10:13:00,42.3,34.9,29.75,East,90,3.1,6.0,75,0.00,,,0.00,pywws,2013-03-04 10:13:00,
2013-03-04 10:18:00,42.3,34.9,29.75,East,90,4.5,8.3,75,0.00,,,0.00,pywws,2013-03-04 10:18:00,
2013-03-04 10:24:00,42.6,35.6,29.75,North,0,3.1,5.4,76,0.00,,,0.00,pywws,2013-03-04 10:24:00,
2013-03-04 10:29:00,43.0,35.3,29.75,NE,45,3.8,9.2,74,0.00,,,0.00,pywws,2013-03-04 10:29:00,
2013-03-04 10:34:00,43.2,35.4,29.75,North,0,3.1,6.9,74,0.00,,,0.00,pywws,2013-03-04 10:34:00,
2013-03-04 10:39:00,43.3,35.3,29.75,ENE,68,3.1,4.5,73,0.00,,,0.00,pywws,2013-03-04 10:39:00,
2013-03-04 10:45:00,43.3,35.3,29.74,North,0,1.6,4.5,73,0.00,,,0.00,pywws,2013-03-04 10:45:00,
2013-03-04 10:50:00,43.7,35.3,29.74,NE,45,3.8,8.3,72,0.00,,,0.00,pywws,2013-03-04 10:50:00,
2013-03-04 10:55:00,44.2,35.1,29.73,NE,45,4.5,9.2,70,0.00,,,0.00,pywws,2013-03-04 10:55:00,
2013-03-04 11:00:00,44.8,36.0,29.73,West,270,2.2,5.4,71,0.00,,,0.00,pywws,2013-03-04 11:00:00,
2013-03-04 11:05:00,45.3,35.4,29.73,NE,45,3.1,9.8,68,0.00,,,0.00,pywws,2013-03-04 11:05:00,
2013-03-04 11:10:00,45.3,35.4,29.73,North,0,3.8,10.7,68,0.00,,,0.00,pywws,2013-03-04 11:10:00,
2013-03-04 11:15:00,45.1,34.8,29.73,East,90,3.8,8.3,67,0.00,,,0.00,pywws,2013-03-04 11:15:00,
2013-03-04 11:20:00,45.9,35.5,29.73,NNE,22,5.4,9.2,67,0.00,,,0.00,pywws,2013-03-04 11:20:00,
2013-03-04 20:27:00,38.3,34.8,29.92,East,90,0.0,0.0,87,0.00,,,0.00,pywws,2013-03-04 20:27:00,
2013-03-04 20:28:00,38.3,34.8,29.92,East,90,0.0,0.0,87,0.00,,,0.00,pywws,2013-03-04 20:28:00,
2013-03-04 20:33:00,37.9,34.7,29.91,East,90,0.0,0.0,88,0.00,,,0.00,pywws,2013-03-04 20:33:00,
2013-03-04 20:39:00,37.9,34.7,29.91,East,90,0.0,1.6,88,0.00,,,0.00,pywws,2013-03-04 20:39:00,
2013-03-04 20:44:00,37.6,34.4,29.91,North,0,0.0,1.6,88,0.00,,,0.00,pywws,2013-03-04 20:44:00,
2013-03-04 20:49:00,37.2,34.3,29.91,East,90,0.0,1.6,89,0.00,,,0.00,pywws,2013-03-04 20:49:00,
2013-03-04 20:55:00,37.2,34.3,29.92,NE,45,0.0,0.0,89,0.00,,,0.00,pywws,2013-03-04 20:55:00,
2013-03-04 21:01:00,37.2,34.8,29.91,NE,45,0.0,0.7,91,0.00,,,0.00,pywws,2013-03-04 21:01:00,
2013-03-04 21:06:00,37.2,34.8,29.91,East,90,0.0,1.6,91,0.00,,,0.00,pywws,2013-03-04 21:06:00,
2013-03-04 21:11:00,37.2,34.8,29.91,East,90,0.0,1.6,91,0.00,,,0.00,pywws,2013-03-04 21:11:00,
2013-03-04 21:16:00,37.2,34.8,29.91,NE,45,0.0,0.0,91,0.00,,,0.00,pywws,2013-03-04 21:16:00,
2013-03-04 21:21:00,36.9,34.5,29.91,NE,45,0.7,2.2,91,0.00,,,0.00,pywws,2013-03-04 21:21:00,
2013-03-04 21:26:00,36.9,34.5,29.91,North,0,0.0,1.6,91,0.00,,,0.00,pywws,2013-03-04 21:26:00,
2013-03-04 21:32:00,36.7,34.3,29.91,North,0,0.0,0.7,91,0.00,,,0.00,pywws,2013-03-04 21:32:00,
2013-03-04 21:37:00,36.7,34.3,29.91,NE,45,0.0,0.7,91,0.00,,,0.00,pywws,2013-03-04 21:37:00,
2013-03-04 21:42:00,36.5,34.1,29.91,NE,45,0.0,0.7,91,0.00,,,0.00,pywws,2013-03-04 21:42:00,
2013-03-04 21:47:00,36.3,34.2,29.91,East,90,0.7,2.2,92,0.00,,,0.00,pywws,2013-03-04 21:47:00,
2013-03-04 21:53:00,36.7,34.9,29.90,NE,45,0.7,2.2,93,0.00,,,0.00,pywws,2013-03-04 21:53:00,
2013-03-04 21:58:00,36.7,34.9,29.90,NE,45,0.0,0.7,93,0.00,,,0.00,pywws,2013-03-04 21:58:00,
2013-03-04 22:03:00,36.5,34.7,29.90,NE,45,0.0,0.0,93,0.00,,,0.00,pywws,2013-03-04 22:03:00,
2013-03-04 22:08:00,36.5,34.7,29.90,NE,45,0.0,2.2,93,0.00,,,0.00,pywws,2013-03-04 22:08:00,
2013-03-04 22:13:00,36.7,34.9,29.89,NE,45,0.0,2.2,93,0.00,,,0.00,pywws,2013-03-04 22:13:00,
2013-03-04 22:18:00,36.7,34.6,29.90,NE,45,0.0,2.2,92,0.00,,,0.00,pywws,2013-03-04 22:18:00,
2013-03-04 22:24:00,36.7,34.9,29.90,NE,45,0.7,2.2,93,0.00,,,0.00,pywws,2013-03-04 22:24:00,
2013-03-04 22:29:00,36.7,34.9,29.89,East,90,0.0,1.6,93,0.00,,,0.00,pywws,2013-03-04 22:29:00,
2013-03-04 22:34:00,36.7,34.9,29.89,NE,45,0.7,2.2,93,0.00,,,0.00,pywws,2013-03-04 22:34:00,
2013-03-04 22:39:00,36.9,34.8,29.89,East,90,0.7,2.2,92,0.00,,,0.00,pywws,2013-03-04 22:39:00,
2013-03-04 22:45:00,36.7,34.6,29.89,East,90,0.7,1.6,92,0.00,,,0.00,pywws,2013-03-04 22:45:00,
2013-03-04 22:50:00,36.7,34.6,29.89,East,90,0.0,1.6,92,0.00,,,0.00,pywws,2013-03-04 22:50:00,
2013-03-04 22:55:00,36.5,34.4,29.89,SE,135,0.7,2.2,92,0.00,,,0.00,pywws,2013-03-04 22:55:00,
2013-03-04 23:00:00,36.5,34.7,29.89,NE,45,0.0,0.7,93,0.00,,,0.00,pywws,2013-03-04 23:00:00,
2013-03-04 23:05:00,36.3,34.5,29.88,NE,45,0.7,2.2,93,0.00,,,0.00,pywws,2013-03-04 23:05:00,
2013-03-04 23:10:00,36.1,34.3,29.88,NE,45,0.0,0.0,93,0.00,,,0.00,pywws,2013-03-04 23:10:00,
2013-03-04 23:15:00,36.0,34.1,29.88,NE,45,0.0,0.0,93,0.00,,,0.00,pywws,2013-03-04 23:15:00,
2013-03-04 23:21:00,35.8,34.0,29.88,NE,45,0.0,1.6,93,0.00,,,0.00,pywws,2013-03-04 23:21:00,
2013-03-04 23:26:00,35.6,33.8,29.88,NE,45,0.0,0.0,93,0.00,,,0.00,pywws,2013-03-04 23:26:00,
2013-03-04 23:31:00,35.4,33.6,29.88,North,0,0.0,0.0,93,0.00,,,0.00,pywws,2013-03-04 23:31:00,
2013-03-04 23:36:00,35.2,33.4,29.87,East,90,0.0,0.0,93,0.00,,,0.00,pywws,2013-03-04 23:36:00,
2013-03-04 23:41:00,34.9,33.1,29.87,East,90,0.0,0.0,93,0.00,,,0.00,pywws,2013-03-04 23:41:00,
2013-03-04 23:46:00,34.7,32.9,29.87,NE,45,0.0,0.0,93,0.00,,,0.00,pywws,2013-03-04 23:46:00,
2013-03-04 23:52:00,34.7,32.9,29.87,NE,45,0.0,0.0,93,0.00,,,0.00,pywws,2013-03-04 23:52:00,
2013-03-04 23:57:00,34.5,33.0,29.87,North,0,0.0,0.0,94,0.00,,,0.00,pywws,2013-03-04 23:57:00,